Time;durP1;ratioP1;P1;durP2;ratioP2;P2;SDS_P1;SDS_P2;PMS_P1;PMS_P2;Temp;Humidity;BMP_temperature;BMP_pressure;BME280_temperature;BME280_humidity;BME280_pressure;Samples;Min_cycle;Max_cycle;Signal;HPM_P1;HPM_P2
2024/03/14 00:00:06;;;;;;;7.68;6.18;;;;;;;8.49;79.87;93029.00;523368;28;729;-69
2024/03/14 00:00:22;;;;;;;8.55;6.32;;;;;;;8.47;80.02;93015.78;523226;28;962;-69
2024/03/14 00:00:42;;;;;;;7.10;5.90;;;;;;;8.47;80.20;93024.03;523222;28;887;-69
2024/03/14 00:00:58;;;;;;;6.03;5.43;;;;;;;8.46;80.09;93019.81;523217;28;922;-69
2024/03/14 00:01:16;;;;;;;6.70;6.00;;;;;;;8.46;80.11;93030.81;523370;28;895;-69
2024/03/14 00:01:36;;;;;;;7.05;6.35;;;;;;;8.48;80.14;93022.75;522896;28;1135;-69
2024/03/14 00:01:52;;;;;;;6.60;5.97;;;;;;;8.49;80.39;93015.25;523162;28;840;-69
2024/03/14 00:02:09;;;;;;;6.57;5.95;;;;;;;8.47;80.15;93021.28;523067;28;864;-69
2024/03/14 00:02:25;;;;;;;6.28;5.68;;;;;;;8.44;80.24;93016.88;523085;28;812;-69
2024/03/14 00:02:42;;;;;;;6.43;5.82;;;;;;;8.42;80.42;93022.19;523114;28;887;-69
2024/03/14 00:02:57;;;;;;;6.68;6.07;;;;;;;8.41;80.19;93020.72;523102;28;800;-69
2024/03/14 00:03:12;;;;;;;6.50;5.90;;;;;;;8.43;80.70;93023.66;523165;28;820;-69
2024/03/14 00:03:28;;;;;;;6.88;6.15;;;;;;;8.35;80.33;93004.38;523163;28;761;-69
2024/03/14 00:03:43;;;;;;;7.03;6.33;;;;;;;8.45;80.26;93025.84;523313;28;982;-69
2024/03/14 00:03:59;;;;;;;6.53;5.82;;;;;;;8.44;80.40;93018.91;522968;28;1335;-69
2024/03/14 00:04:14;;;;;;;6.53;5.83;;;;;;;8.40;80.36;93017.22;523146;28;911;-69
2024/03/14 00:04:31;;;;;;;6.43;5.75;;;;;;;8.40;80.73;93019.97;523006;28;804;-69
2024/03/14 00:04:46;;;;;;;6.10;5.45;;;;;;;8.42;80.72;93022.19;523074;28;816;-69
2024/03/14 00:05:02;;;;;;;6.47;5.80;;;;;;;8.41;80.63;93023.47;523039;28;784;-69
2024/03/14 00:05:18;;;;;;;6.82;6.22;;;;;;;8.42;80.74;93013.94;523003;28;804;-69
2024/03/14 00:05:33;;;;;;;7.13;6.47;;;;;;;8.41;80.52;93015.22;522938;28;753;-69
2024/03/14 00:05:53;;;;;;;7.07;6.38;;;;;;;8.40;80.63;93017.22;522926;28;819;-69
2024/03/14 00:06:10;;;;;;;6.45;5.85;;;;;;;8.39;80.93;93013.00;523047;28;866;-69
2024/03/14 00:06:25;;;;;;;5.93;5.43;;;;;;;8.38;80.85;93019.06;523046;28;835;-69
2024/03/14 00:06:42;;;;;;;6.28;5.68;;;;;;;8.34;80.65;93013.91;523210;28;757;-69
2024/03/14 00:06:57;;;;;;;6.68;5.97;;;;;;;8.34;80.84;93021.41;523294;28;800;-69
2024/03/14 00:07:14;;;;;;;6.93;6.25;;;;;;;8.34;80.72;93013.91;523266;28;777;-69
2024/03/14 00:07:30;;;;;;;6.75;6.13;;;;;;;8.34;80.88;93015.91;523235;28;836;-69
2024/03/14 00:07:47;;;;;;;6.53;5.93;;;;;;;8.33;80.92;93009.69;523241;28;851;-69
2024/03/14 00:08:03;;;;;;;6.32;5.72;;;;;;;8.32;80.87;93013.72;523307;28;804;-69
2024/03/14 00:08:18;;;;;;;6.50;5.80;;;;;;;8.33;81.02;93014.47;523182;28;926;-69
2024/03/14 00:08:34;;;;;;;6.50;5.90;;;;;;;8.33;80.91;93017.22;523208;28;765;-69
2024/03/14 00:08:49;;;;;;;6.20;5.60;;;;;;;8.34;80.98;93013.16;523228;28;933;-69
2024/03/14 00:09:08;;;;;;;5.93;5.43;;;;;;;8.34;81.03;93013.91;523300;28;815;-69
2024/03/14 00:09:25;;;;;;;5.78;5.25;;;;;;;8.37;81.08;93020.34;523260;28;807;-69
2024/03/14 00:09:40;;;;;;;5.90;5.30;;;;;;;8.37;81.04;93012.09;523289;28;808;-69
2024/03/14 00:09:56;;;;;;;6.27;5.67;;;;;;;8.37;80.78;93015.56;523197;28;784;-69
2024/03/14 00:10:11;;;;;;;6.00;5.47;;;;;;;8.40;81.05;93013.75;523299;28;757;-69
2024/03/14 00:10:27;;;;;;;6.10;5.50;;;;;;;8.40;80.98;93011.00;523091;28;809;-69
2024/03/14 00:10:43;;;;;;;6.38;5.78;;;;;;;8.40;80.91;93013.75;523203;28;749;-69
2024/03/14 00:10:59;;;;;;;5.88;5.38;;;;;;;8.40;80.67;93016.50;523058;28;781;-69
2024/03/14 00:11:14;;;;;;;5.60;5.10;;;;;;;8.38;80.72;93010.81;523107;28;1973;-69
2024/03/14 00:11:30;;;;;;;5.80;5.30;;;;;;;8.37;80.50;93015.56;522944;28;776;-69
2024/03/14 00:11:45;;;;;;;6.28;5.68;;;;;;;8.38;80.41;93019.06;523147;28;820;-69
2024/03/14 00:12:01;;;;;;;6.03;5.53;;;;;;;8.38;80.62;93017.03;523095;28;839;-69
2024/03/14 00:12:16;;;;;;;5.93;5.32;;;;;;;8.37;80.64;93009.34;523109;28;883;-69
2024/03/14 00:12:32;;;;;;;6.20;5.47;;;;;;;8.36;80.46;93010.59;523099;28;800;-69
2024/03/14 00:12:48;;;;;;;6.15;5.55;;;;;;;8.37;80.38;93014.84;523109;28;820;-69
2024/03/14 00:13:05;;;;;;;5.90;5.40;;;;;;;8.36;80.53;93011.34;523147;28;863;-69
2024/03/14 00:13:20;;;;;;;5.72;5.22;;;;;;;8.36;80.70;93011.34;523098;28;895;-69
2024/03/14 00:13:36;;;;;;;6.37;5.77;;;;;;;8.36;80.42;93008.59;523147;28;808;-69
2024/03/14 00:13:51;;;;;;;6.13;5.53;;;;;;;8.37;80.41;93009.34;523128;28;955;-69
2024/03/14 00:14:08;;;;;;;6.20;5.60;;;;;;;8.36;80.43;93005.09;523077;28;740;-69
2024/03/14 00:14:23;;;;;;;6.15;5.55;;;;;;;8.36;80.57;93007.84;523200;28;836;-69
2024/03/14 00:14:44;;;;;;;6.33;5.73;;;;;;;8.36;80.69;93005.09;523057;28;1014;-70
2024/03/14 00:14:59;;;;;;;6.90;6.20;;;;;;;8.33;80.64;93017.94;523122;28;887;-69
2024/03/14 00:15:15;;;;;;;6.53;5.60;;;;;;;8.32;80.68;93010.97;523160;28;753;-69
2024/03/14 00:15:31;;;;;;;6.75;5.53;;;;;;;8.32;80.87;93010.97;523076;28;923;-69
2024/03/14 00:15:46;;;;;;;6.35;5.38;;;;;;;8.30;80.99;93008.03;523127;28;772;-70
2024/03/14 00:16:03;;;;;;;6.23;5.53;;;;;;;8.15;80.92;92991.44;523175;28;737;-69
2024/03/14 00:16:19;;;;;;;6.80;5.93;;;;;;;8.30;80.89;93010.78;523080;28;1052;-69
2024/03/14 00:16:35;;;;;;;6.00;5.40;;;;;;;8.30;81.11;93010.03;523148;28;760;-69
2024/03/14 00:16:52;;;;;;;5.82;5.30;;;;;;;8.29;81.35;93008.59;523205;28;804;-69
2024/03/14 00:17:07;;;;;;;6.40;5.80;;;;;;;8.27;81.28;93016.63;523203;28;808;-69
2024/03/14 00:17:23;;;;;;;6.60;6.00;;;;;;;8.26;81.49;93004.91;523237;28;1148;-69
2024/03/14 00:17:38;;;;;;;7.03;6.28;;;;;;;8.20;81.55;92998.06;523205;28;915;-69
2024/03/14 00:17:54;;;;;;;7.00;5.97;;;;;;;8.26;81.67;93002.16;523310;28;792;-69
2024/03/14 00:18:09;;;;;;;6.78;5.85;;;;;;;8.26;81.65;93009.66;523172;28;824;-69
2024/03/14 00:18:26;;;;;;;6.67;5.97;;;;;;;8.24;81.79;93003.94;523202;28;769;-69
2024/03/14 00:18:41;;;;;;;6.20;5.60;;;;;;;8.22;81.92;93006.50;523200;28;831;-69
2024/03/14 00:18:59;;;;;;;6.27;5.63;;;;;;;8.23;81.75;93002.47;523307;28;819;-70
2024/03/14 00:19:15;;;;;;;9.65;6.22;;;;;;;8.23;81.97;93008.69;523229;28;886;-69
2024/03/14 00:19:31;;;;;;;12.75;6.15;;;;;;;8.24;81.58;93004.69;523219;28;816;-69
2024/03/14 00:19:46;;;;;;;10.77;6.07;;;;;;;8.25;81.69;93008.16;523185;28;749;-69
2024/03/14 00:20:04;;;;;;;8.27;6.30;;;;;;;8.27;81.72;93005.63;523292;28;855;-69
2024/03/14 00:20:19;;;;;;;7.63;6.05;;;;;;;8.28;81.68;93007.09;523164;28;812;-69
2024/03/14 00:20:37;;;;;;;7.00;6.07;;;;;;;8.27;81.76;93002.88;523241;28;1022;-69
2024/03/14 00:20:52;;;;;;;6.78;6.07;;;;;;;8.27;81.93;93003.59;523344;28;841;-69
2024/03/14 00:21:11;;;;;;;6.13;5.57;;;;;;;8.28;81.93;93009.84;523114;28;768;-69
2024/03/14 00:21:26;;;;;;;5.80;5.30;;;;;;;8.27;81.84;93002.88;523221;28;891;-69
2024/03/14 00:21:42;;;;;;;6.23;5.63;;;;;;;8.28;81.75;93009.84;523201;28;749;-69
2024/03/14 00:21:58;;;;;;;6.47;5.85;;;;;;;8.29;81.67;93008.59;523069;28;741;-69
2024/03/14 00:22:14;;;;;;;6.27;5.67;;;;;;;8.26;81.98;93007.66;523123;28;840;-69
2024/03/14 00:22:29;;;;;;;6.57;5.88;;;;;;;8.27;81.79;93000.84;522993;28;834;-69
2024/03/14 00:22:45;;;;;;;6.63;5.93;;;;;;;8.28;81.84;93005.09;523141;28;817;-69
2024/03/14 00:23:01;;;;;;;6.65;5.95;;;;;;;8.28;81.58;93005.09;523069;28;800;-69
2024/03/14 00:23:16;;;;;;;6.40;5.80;;;;;;;8.30;81.96;93007.28;523053;28;781;-69
2024/03/14 00:23:32;;;;;;;6.40;5.80;;;;;;;8.30;81.67;93004.53;523128;28;741;-69
2024/03/14 00:23:47;;;;;;;6.40;5.80;;;;;;;8.30;81.92;93004.53;522953;28;804;-69
2024/03/14 00:24:02;;;;;;;6.85;6.00;;;;;;;8.29;81.79;93003.06;523128;28;765;-69
2024/03/14 00:24:18;;;;;;;8.77;6.47;;;;;;;8.27;81.76;93003.59;523115;28;922;-69
2024/03/14 00:24:34;;;;;;;9.25;6.60;;;;;;;8.26;82.14;93006.91;523113;28;853;-70
2024/03/14 00:24:51;;;;;;;7.93;6.45;;;;;;;8.26;81.98;93001.41;523126;28;824;-69
2024/03/14 00:25:09;;;;;;;9.23;6.00;;;;;;;8.27;81.95;93002.88;523017;28;863;-69
2024/03/14 00:25:26;;;;;;;9.55;5.93;;;;;;;8.29;81.88;93003.06;523238;28;789;-69
2024/03/14 00:25:41;;;;;;;7.00;5.70;;;;;;;8.27;81.90;93000.84;523236;28;859;-69
2024/03/14 00:25:57;;;;;;;6.07;5.47;;;;;;;8.27;82.09;93000.13;523236;28;788;-69
2024/03/14 00:26:15;;;;;;;6.30;5.70;;;;;;;8.26;81.89;93001.41;523222;28;891;-69
2024/03/14 00:26:31;;;;;;;7.57;5.85;;;;;;;8.25;81.95;93005.41;523174;28;853;-70
2024/03/14 00:26:47;;;;;;;8.32;6.32;;;;;;;8.24;82.04;93006.69;523092;28;1087;-69
2024/03/14 00:27:03;;;;;;;8.67;6.07;;;;;;;8.23;82.08;92996.94;523339;28;800;-69
2024/03/14 00:27:19;;;;;;;8.45;6.22;;;;;;;8.24;82.46;93001.19;523186;28;844;-69
2024/03/14 00:27:35;;;;;;;7.55;6.70;;;;;;;8.26;82.42;92999.41;523187;28;828;-69
2024/03/14 00:27:50;;;;;;;6.57;5.90;;;;;;;8.28;82.07;92998.84;523212;28;749;-69
2024/03/14 00:28:09;;;;;;;6.35;5.75;;;;;;;8.25;82.00;93000.66;523248;28;788;-70
2024/03/14 00:28:25;;;;;;;7.70;6.43;;;;;;;8.26;82.15;92998.66;523141;28;859;-69
2024/03/14 00:28:40;;;;;;;8.88;7.13;;;;;;;8.26;82.28;93002.16;523148;28;805;-69
2024/03/14 00:28:56;;;;;;;8.95;7.00;;;;;;;8.24;82.06;92996.44;523221;28;744;-69
2024/03/14 00:29:11;;;;;;;6.67;5.97;;;;;;;8.26;82.28;92998.66;523121;28;891;-69
2024/03/14 00:29:26;;;;;;;6.63;6.03;;;;;;;8.27;82.41;93003.59;522964;28;792;-69
2024/03/14 00:29:42;;;;;;;6.97;6.30;;;;;;;8.28;82.35;92996.09;523072;28;872;-69
2024/03/14 00:29:57;;;;;;;6.97;6.33;;;;;;;8.29;82.03;93000.31;523079;28;832;-69
2024/03/14 00:30:18;;;;;;;6.75;6.05;;;;;;;8.31;82.30;92998.50;523078;28;939;-69
2024/03/14 00:30:33;;;;;;;7.20;6.20;;;;;;;8.33;81.94;93003.47;523022;28;792;-69
2024/03/14 00:30:49;;;;;;;6.93;6.23;;;;;;;8.33;82.29;92998.69;523049;28;824;-69
2024/03/14 00:31:04;;;;;;;6.50;5.90;;;;;;;8.20;81.98;92978.81;523102;28;827;-69
2024/03/14 00:31:20;;;;;;;6.53;5.75;;;;;;;8.36;81.94;92999.59;523032;28;1971;-69
2024/03/14 00:31:38;;;;;;;7.40;5.90;;;;;;;8.36;82.01;92994.84;523069;28;792;-69
2024/03/14 00:31:54;;;;;;;6.88;5.97;;;;;;;8.31;81.90;92997.75;523105;28;899;-69
2024/03/14 00:32:09;;;;;;;7.00;6.30;;;;;;;8.32;82.09;92996.47;522957;28;919;-69
2024/03/14 00:32:25;;;;;;;6.70;6.00;;;;;;;8.31;82.12;92993.00;523102;28;832;-69
2024/03/14 00:32:40;;;;;;;6.50;5.90;;;;;;;8.32;81.93;92999.22;523098;28;733;-69
2024/03/14 00:32:56;;;;;;;6.40;5.80;;;;;;;8.31;82.20;92987.50;523135;28;832;-69
2024/03/14 00:33:12;;;;;;;6.22;5.68;;;;;;;8.32;82.11;92999.22;523020;28;919;-69
2024/03/14 00:33:27;;;;;;;6.83;6.13;;;;;;;8.33;82.08;93001.44;523010;28;769;-69
2024/03/14 00:33:43;;;;;;;7.07;6.25;;;;;;;8.35;81.91;92998.13;523094;28;828;-69
2024/03/14 00:33:58;;;;;;;6.87;6.17;;;;;;;8.34;81.80;92991.91;523111;28;773;-69
2024/03/14 00:34:15;;;;;;;6.82;6.22;;;;;;;8.31;81.82;92997.75;523079;28;804;-69
2024/03/14 00:34:31;;;;;;;6.43;5.82;;;;;;;8.30;81.91;92996.28;523089;28;840;-69
2024/03/14 00:34:47;;;;;;;7.18;6.00;;;;;;;8.31;81.93;92995.00;523053;28;904;-69
2024/03/14 00:35:03;;;;;;;6.93;6.07;;;;;;;8.30;81.78;92994.28;523074;28;926;-69
2024/03/14 00:35:18;;;;;;;6.68;6.07;;;;;;;8.32;81.91;93001.97;523064;28;741;-69
2024/03/14 00:35:33;;;;;;;6.63;6.03;;;;;;;8.32;81.93;92996.47;523098;28;792;-69
2024/03/14 00:35:50;;;;;;;6.72;6.07;;;;;;;8.32;82.13;92988.22;523115;28;895;-70
2024/03/14 00:36:05;;;;;;;7.30;6.60;;;;;;;8.32;81.99;92988.22;522998;28;879;-69
2024/03/14 00:36:21;;;;;;;7.55;6.75;;;;;;;8.34;81.89;92993.91;523083;28;772;-69
2024/03/14 00:36:37;;;;;;;7.40;6.70;;;;;;;8.13;81.93;92965.75;522963;28;840;-69
2024/03/14 00:36:53;;;;;;;7.05;6.38;;;;;;;8.34;81.83;92996.66;523002;28;881;-69
2024/03/14 00:37:09;;;;;;;7.05;6.30;;;;;;;8.31;81.97;92993.00;522978;28;824;-69
2024/03/14 00:37:24;;;;;;;7.43;6.33;;;;;;;8.26;81.88;92991.16;523175;28;777;-69
2024/03/14 00:37:40;;;;;;;7.05;6.35;;;;;;;8.23;82.04;92992.19;523156;28;765;-69
2024/03/14 00:37:55;;;;;;;7.13;6.50;;;;;;;8.24;82.32;92987.44;523249;28;847;-69
2024/03/14 00:38:11;;;;;;;7.50;6.80;;;;;;;8.22;82.25;92990.00;523161;28;733;-69
2024/03/14 00:38:26;;;;;;;7.30;6.60;;;;;;;8.19;82.36;93000.06;523154;28;796;-69
2024/03/14 00:38:42;;;;;;;7.00;6.30;;;;;;;8.20;82.29;92989.81;523218;28;1311;-69
2024/03/14 00:38:58;;;;;;;7.70;6.43;;;;;;;8.21;82.63;92988.50;523129;28;848;-69
2024/03/14 00:39:15;;;;;;;8.65;6.47;;;;;;;8.22;82.57;92992.75;523160;28;812;-69
2024/03/14 00:39:31;;;;;;;8.10;6.57;;;;;;;8.24;82.55;92992.94;523238;28;854;-69
2024/03/14 00:39:47;;;;;;;7.28;6.57;;;;;;;8.25;82.41;92992.41;523242;28;820;-69
2024/03/14 00:40:03;;;;;;;7.70;6.90;;;;;;;8.28;82.36;92991.34;523284;28;840;-69
2024/03/14 00:40:19;;;;;;;8.15;7.22;;;;;;;8.28;82.28;92993.34;523148;28;918;-69
2024/03/14 00:40:35;;;;;;;8.67;7.27;;;;;;;8.27;82.14;92995.34;523118;28;867;-69
2024/03/14 00:40:51;;;;;;;8.38;7.25;;;;;;;8.25;82.34;92988.91;523246;28;865;-69
2024/03/14 00:41:11;;;;;;;8.02;7.20;;;;;;;8.17;82.07;92986.13;523083;28;852;-69
2024/03/14 00:41:27;;;;;;;7.35;6.38;;;;;;;8.12;82.03;92992.50;523053;28;843;-69
2024/03/14 00:41:43;;;;;;;7.38;6.03;;;;;;;8.10;82.40;92989.56;523102;28;864;-69
2024/03/14 00:41:58;;;;;;;7.20;6.45;;;;;;;8.12;82.38;92992.50;523007;28;729;-70
2024/03/14 00:42:14;;;;;;;7.43;6.70;;;;;;;8.13;82.02;92988.50;523087;28;855;-69
2024/03/14 00:42:29;;;;;;;8.27;7.10;;;;;;;8.16;82.43;92986.69;522977;28;820;-69
2024/03/14 00:42:45;;;;;;;8.23;7.03;;;;;;;8.18;82.22;92989.63;523156;28;824;-69
2024/03/14 00:43:00;;;;;;;7.63;6.72;;;;;;;8.20;82.51;92989.81;523055;28;828;-69
2024/03/14 00:43:17;;;;;;;7.97;7.17;;;;;;;8.18;82.61;92986.88;523027;28;753;-69
2024/03/14 00:43:35;;;;;;;8.13;7.32;;;;;;;8.17;82.26;92980.63;523181;28;835;-69
2024/03/14 00:43:50;;;;;;;7.32;6.60;;;;;;;8.18;82.68;92986.88;523037;28;840;-69
2024/03/14 00:44:07;;;;;;;6.90;6.20;;;;;;;8.18;82.60;92986.88;522988;28;837;-69
2024/03/14 00:44:23;;;;;;;6.90;6.20;;;;;;;8.18;82.32;92982.13;523131;28;844;-69
2024/03/14 00:44:38;;;;;;;7.03;6.32;;;;;;;8.20;82.47;92987.06;522874;28;1207;-69
2024/03/14 00:44:54;;;;;;;7.43;6.33;;;;;;;8.19;82.52;92991.06;523170;28;800;-69
2024/03/14 00:45:09;;;;;;;6.68;5.97;;;;;;;8.18;82.63;92981.38;523018;28;812;-69
2024/03/14 00:45:24;;;;;;;6.30;5.70;;;;;;;8.19;82.12;92980.06;523061;28;756;-69
2024/03/14 00:45:40;;;;;;;6.40;5.80;;;;;;;8.16;82.30;92981.94;523117;28;1046;-69
2024/03/14 00:45:56;;;;;;;6.78;6.15;;;;;;;8.12;82.60;92987.03;523021;28;847;-70
2024/03/14 00:46:12;;;;;;;6.88;6.20;;;;;;;8.09;82.69;92990.13;523120;28;804;-69
2024/03/14 00:46:29;;;;;;;6.78;6.07;;;;;;;8.06;82.47;92983.69;523283;28;757;-69
2024/03/14 00:46:45;;;;;;;6.82;6.00;;;;;;;7.79;82.86;92955.00;523276;28;810;-69
2024/03/14 00:47:01;;;;;;;7.15;6.25;;;;;;;8.02;83.10;92988.06;523079;28;824;-70
2024/03/14 00:47:16;;;;;;;7.10;6.40;;;;;;;8.03;83.21;92992.31;523129;28;757;-69
2024/03/14 00:47:32;;;;;;;6.40;5.80;;;;;;;8.04;83.06;92989.00;523140;28;1032;-68
2024/03/14 00:47:47;;;;;;;6.27;5.67;;;;;;;8.07;83.23;92987.19;522973;28;1416;-69
2024/03/14 00:48:03;;;;;;;6.43;5.83;;;;;;;8.08;83.04;92981.13;523246;28;964;-69
2024/03/14 00:48:18;;;;;;;6.67;6.07;;;;;;;8.09;83.30;92982.63;523217;28;745;-69
2024/03/14 00:48:34;;;;;;;6.93;6.28;;;;;;;8.10;83.31;92986.13;523163;28;788;-69
2024/03/14 00:48:52;;;;;;;6.80;6.10;;;;;;;8.10;82.95;92984.06;523109;28;916;-70
2024/03/14 00:49:07;;;;;;;7.22;5.75;;;;;;;7.86;82.76;92948.06;523196;28;820;-69
2024/03/14 00:49:23;;;;;;;6.33;5.43;;;;;;;8.09;82.96;92979.88;523194;28;1081;-68
2024/03/14 00:49:38;;;;;;;5.65;5.15;;;;;;;8.06;82.99;92980.94;523172;28;844;-69
2024/03/14 00:49:54;;;;;;;5.77;5.27;;;;;;;8.05;82.89;92987.00;523238;28;816;-69
2024/03/14 00:50:10;;;;;;;6.20;5.60;;;;;;;8.05;82.92;92981.50;523150;28;841;-69
2024/03/14 00:50:25;;;;;;;6.53;5.93;;;;;;;8.00;83.07;92979.63;523186;28;788;-69
2024/03/14 00:50:41;;;;;;;6.60;6.00;;;;;;;7.96;83.17;92979.25;523176;28;823;-69
2024/03/14 00:50:56;;;;;;;6.53;5.88;;;;;;;7.94;83.41;92979.81;523204;28;793;-69
2024/03/14 00:51:12;;;;;;;7.00;6.30;;;;;;;7.95;83.37;92983.31;523109;28;1973;-69
2024/03/14 00:51:27;;;;;;;6.90;6.25;;;;;;;7.95;83.65;92983.31;523177;28;780;-69
2024/03/14 00:51:44;;;;;;;6.63;6.03;;;;;;;7.95;83.67;92980.56;523191;28;836;-69
2024/03/14 00:52:00;;;;;;;6.90;6.20;;;;;;;7.97;83.66;92986.25;523099;28;884;-69
2024/03/14 00:52:17;;;;;;;6.93;6.23;;;;;;;7.99;83.36;92989.91;523213;28;792;-69
2024/03/14 00:52:32;;;;;;;6.95;6.30;;;;;;;8.01;83.64;92981.84;523237;28;898;-69
2024/03/14 00:52:48;;;;;;;6.70;6.10;;;;;;;8.02;83.41;92982.56;523144;28;859;-69
2024/03/14 00:53:03;;;;;;;7.17;6.27;;;;;;;8.03;83.77;92984.81;523188;28;793;-69
2024/03/14 00:53:19;;;;;;;7.28;6.18;;;;;;;8.05;83.34;92981.50;523039;28;816;-69
2024/03/14 00:53:34;;;;;;;6.57;5.97;;;;;;;8.06;83.45;92985.72;523029;28;764;-69
2024/03/14 00:53:51;;;;;;;6.75;6.15;;;;;;;8.09;83.42;92984.63;523049;28;769;-69
2024/03/14 00:54:07;;;;;;;6.80;6.10;;;;;;;8.08;83.41;92980.41;523036;28;848;-69
2024/03/14 00:54:23;;;;;;;6.63;6.00;;;;;;;8.09;83.22;92990.13;523001;28;792;-69
2024/03/14 00:54:38;;;;;;;6.97;6.37;;;;;;;8.09;83.35;92979.13;523025;28;796;-69
2024/03/14 00:54:53;;;;;;;7.40;6.70;;;;;;;8.11;83.34;92982.06;523148;28;808;-69
2024/03/14 00:55:09;;;;;;;7.30;6.50;;;;;;;8.08;83.19;92991.41;523024;28;856;-69
2024/03/14 00:55:24;;;;;;;6.85;6.15;;;;;;;8.06;83.27;92980.22;523005;28;800;-69
2024/03/14 00:55:41;;;;;;;6.50;5.90;;;;;;;8.09;83.18;92995.63;522998;28;812;-69
2024/03/14 00:55:58;;;;;;;6.40;5.80;;;;;;;8.05;82.96;92982.25;523103;28;871;-69
2024/03/14 00:56:15;;;;;;;7.05;6.20;;;;;;;8.05;83.34;92985.00;523096;28;820;-69
2024/03/14 00:56:31;;;;;;;6.95;6.25;;;;;;;8.06;83.44;92986.44;522927;28;880;-69
2024/03/14 00:56:48;;;;;;;6.95;6.15;;;;;;;8.07;83.23;92989.94;523053;28;887;-69
2024/03/14 00:57:03;;;;;;;6.88;6.18;;;;;;;8.05;83.49;92979.50;522934;28;879;-69
2024/03/14 00:57:19;;;;;;;6.78;6.18;;;;;;;8.05;83.52;92981.50;522995;28;900;-69
2024/03/14 00:57:35;;;;;;;6.80;6.20;;;;;;;8.02;83.36;92977.81;522987;28;835;-69
2024/03/14 00:57:50;;;;;;;6.35;5.75;;;;;;;8.04;83.42;92985.50;523005;28;777;-69
2024/03/14 00:58:06;;;;;;;6.53;5.93;;;;;;;8.04;83.46;92985.50;522985;28;875;-69
2024/03/14 00:58:22;;;;;;;6.88;6.18;;;;;;;8.05;83.43;92982.25;523102;28;808;-69
2024/03/14 00:58:38;;;;;;;6.83;6.13;;;;;;;8.06;83.53;92980.22;523110;28;797;-71
2024/03/14 00:58:56;;;;;;;6.88;6.18;;;;;;;8.08;83.30;92988.66;523219;28;811;-69
2024/03/14 00:59:12;;;;;;;6.82;6.10;;;;;;;8.10;83.32;92983.38;523113;28;836;-69
2024/03/14 00:59:31;;;;;;;7.28;6.45;;;;;;;7.87;83.06;92949.53;523143;28;864;-69
2024/03/14 00:59:46;;;;;;;6.93;6.22;;;;;;;8.14;83.36;92981.72;523128;28;888;-69
2024/03/14 01:00:12;;;;;;;6.78;6.07;;;;;;;8.16;83.02;92984.69;523210;28;832;-69
2024/03/14 01:00:29;;;;;;;6.88;6.18;;;;;;;8.19;83.12;92983.56;523087;28;1088;-69
2024/03/14 01:00:45;;;;;;;7.35;6.60;;;;;;;8.18;82.85;92982.13;523252;28;864;-69
2024/03/14 01:01:00;;;;;;;7.30;6.60;;;;;;;8.14;83.14;92981.00;523127;28;808;-69
2024/03/14 01:01:16;;;;;;;6.47;5.88;;;;;;;8.13;83.22;92977.50;523153;28;800;-69
2024/03/14 01:01:31;;;;;;;6.60;5.90;;;;;;;8.14;83.11;92984.47;523188;28;789;-69
2024/03/14 01:01:47;;;;;;;6.78;6.10;;;;;;;8.13;83.16;92985.75;523173;28;871;-69
2024/03/14 01:02:02;;;;;;;6.70;6.10;;;;;;;8.13;83.42;92983.00;523119;28;796;-69
2024/03/14 01:02:19;;;;;;;6.72;6.13;;;;;;;8.13;83.35;92983.00;523002;28;847;-69
2024/03/14 01:02:35;;;;;;;6.82;6.20;;;;;;;8.10;83.30;92975.84;522893;28;804;-69
2024/03/14 01:02:50;;;;;;;6.85;6.15;;;;;;;8.10;83.33;92983.38;523033;28;780;-69
2024/03/14 01:03:08;;;;;;;7.15;6.43;;;;;;;8.08;83.68;92977.66;523002;28;800;-69
2024/03/14 01:03:24;;;;;;;7.75;6.93;;;;;;;8.07;83.75;92978.94;523069;28;915;-69
2024/03/14 01:03:40;;;;;;;7.60;6.80;;;;;;;7.79;83.63;92943.28;522959;28;812;-69
2024/03/14 01:03:56;;;;;;;7.40;6.70;;;;;;;8.09;83.50;92987.38;523022;28;771;-69
2024/03/14 01:04:12;;;;;;;6.78;6.18;;;;;;;8.10;83.47;92984.06;523031;28;903;-69
2024/03/14 01:04:30;;;;;;;7.60;6.03;;;;;;;8.10;83.54;92980.63;522949;28;1119;-69
2024/03/14 01:04:45;;;;;;;9.60;6.07;;;;;;;8.11;83.72;92982.06;523063;28;836;-69
2024/03/14 01:05:02;;;;;;;10.65;6.25;;;;;;;8.11;83.51;92984.81;522979;28;852;-69
2024/03/14 01:05:17;;;;;;;9.85;6.32;;;;;;;8.10;83.66;92975.13;522865;28;895;-69
2024/03/14 01:05:36;;;;;;;7.15;6.20;;;;;;;8.10;83.56;92980.63;523014;28;745;-69
2024/03/14 01:05:52;;;;;;;6.32;5.72;;;;;;;8.10;83.52;92977.88;523073;28;864;-69
2024/03/14 01:06:11;;;;;;;6.83;6.23;;;;;;;8.10;83.50;92977.88;522944;28;841;-69
2024/03/14 01:06:26;;;;;;;7.43;6.68;;;;;;;8.10;83.35;92981.31;522979;28;900;-69
2024/03/14 01:06:42;;;;;;;7.05;6.30;;;;;;;8.11;83.31;92980.06;523060;28;759;-69
2024/03/14 01:06:57;;;;;;;7.00;6.30;;;;;;;8.11;83.38;92976.56;522645;28;811;-69
2024/03/14 01:07:13;;;;;;;7.32;6.63;;;;;;;8.13;83.32;92976.75;522652;28;851;-69
2024/03/14 01:07:28;;;;;;;6.87;6.23;;;;;;;8.15;83.33;92985.19;522647;28;741;-69
2024/03/14 01:07:47;;;;;;;6.77;6.07;;;;;;;8.16;83.18;92976.44;522988;28;1082;-69
2024/03/14 01:08:06;;;;;;;6.78;6.07;;;;;;;8.19;83.33;92980.81;523008;28;847;-69
2024/03/14 01:08:22;;;;;;;6.75;6.05;;;;;;;8.20;83.17;92973.31;523047;28;821;-69
2024/03/14 01:08:38;;;;;;;6.80;6.10;;;;;;;8.21;83.15;92974.75;522948;28;788;-69
2024/03/14 01:08:55;;;;;;;6.53;5.82;;;;;;;8.22;82.82;92984.50;523025;28;808;-69
2024/03/14 01:09:11;;;;;;;6.60;5.90;;;;;;;8.22;82.86;92979.75;522986;28;804;-69
2024/03/14 01:09:27;;;;;;;6.85;6.15;;;;;;;8.23;82.86;92972.94;522893;28;828;-69
2024/03/14 01:09:42;;;;;;;7.40;6.38;;;;;;;8.25;82.94;92977.91;523045;28;879;-69
2024/03/14 01:09:58;;;;;;;7.03;6.35;;;;;;;8.25;82.92;92975.16;523018;28;745;-69
2024/03/14 01:10:14;;;;;;;6.90;6.30;;;;;;;8.23;82.43;92972.94;522935;28;744;-69
2024/03/14 01:10:29;;;;;;;6.55;5.85;;;;;;;8.19;82.42;92975.31;522961;28;1018;-69
2024/03/14 01:10:45;;;;;;;6.47;5.87;;;;;;;8.19;82.44;92975.31;523064;28;725;-69
2024/03/14 01:11:00;;;;;;;8.20;6.40;;;;;;;8.20;82.35;92976.06;522930;28;851;-69
2024/03/14 01:11:19;;;;;;;9.30;6.70;;;;;;;8.18;82.61;92978.63;523016;28;1975;-69
2024/03/14 01:11:34;;;;;;;7.38;6.32;;;;;;;8.17;82.77;92977.13;523103;28;965;-69
2024/03/14 01:11:49;;;;;;;7.23;6.20;;;;;;;8.15;82.76;92974.19;523188;28;836;-69
2024/03/14 01:12:05;;;;;;;7.67;6.40;;;;;;;8.13;82.98;92974.00;523138;28;856;-69
2024/03/14 01:12:20;;;;;;;7.00;6.30;;;;;;;8.14;83.14;92972.75;522962;28;848;-69
2024/03/14 01:12:36;;;;;;;7.00;6.30;;;;;;;8.14;83.05;92964.50;523162;28;769;-69
2024/03/14 01:12:51;;;;;;;6.80;6.10;;;;;;;8.15;82.84;92969.44;523143;28;855;-69
2024/03/14 01:13:07;;;;;;;6.53;5.80;;;;;;;8.17;82.89;92969.63;523141;28;808;-69
2024/03/14 01:13:25;;;;;;;7.05;5.72;;;;;;;8.17;82.90;92974.38;523090;28;813;-69
2024/03/14 01:13:40;;;;;;;8.13;5.97;;;;;;;8.14;83.07;92973.47;523088;28;879;-69
2024/03/14 01:13:56;;;;;;;7.63;5.97;;;;;;;8.11;82.79;92974.56;523152;28;848;-69
2024/03/14 01:14:11;;;;;;;6.85;5.90;;;;;;;8.09;83.02;92970.88;523164;28;848;-70
2024/03/14 01:14:27;;;;;;;7.30;6.20;;;;;;;8.10;82.92;92972.38;523108;28;852;-69
2024/03/14 01:14:44;;;;;;;7.72;6.72;;;;;;;8.11;83.16;92971.06;523159;28;852;-69
2024/03/14 01:15:00;;;;;;;7.18;6.45;;;;;;;8.10;83.35;92969.63;523061;28;977;-69
2024/03/14 01:15:17;;;;;;;6.68;5.97;;;;;;;8.08;83.06;92969.41;523130;28;812;-69
2024/03/14 01:15:33;;;;;;;7.32;6.18;;;;;;;8.05;83.21;92974.00;523104;28;1047;-69
2024/03/14 01:15:48;;;;;;;7.32;6.20;;;;;;;8.03;83.16;92971.06;523114;28;891;-69
2024/03/14 01:16:05;;;;;;;6.80;5.97;;;;;;;7.98;83.42;92969.19;523150;28;843;-69
2024/03/14 01:16:20;;;;;;;6.88;5.85;;;;;;;8.00;83.34;92965.88;523077;28;891;-69
2024/03/14 01:16:36;;;;;;;6.77;6.07;;;;;;;8.02;83.35;92968.84;523088;28;828;-69
2024/03/14 01:16:51;;;;;;;6.43;5.82;;;;;;;7.91;83.59;92967.13;523147;28;1143;-69
2024/03/14 01:17:07;;;;;;;5.93;5.40;;;;;;;7.89;83.73;92974.44;523145;28;784;-69
2024/03/14 01:17:23;;;;;;;6.38;5.55;;;;;;;7.88;83.98;92973.75;522937;28;998;-69
2024/03/14 01:17:39;;;;;;;6.70;6.00;;;;;;;7.84;84.08;92956.84;522970;28;873;-69
2024/03/14 01:17:54;;;;;;;6.25;5.63;;;;;;;7.88;84.09;92964.75;522980;28;880;-69
2024/03/14 01:18:10;;;;;;;6.13;5.53;;;;;;;7.89;84.01;92968.97;522985;28;831;-69
2024/03/14 01:18:25;;;;;;;6.20;5.60;;;;;;;7.93;83.99;92969.34;522961;28;859;-69
2024/03/14 01:18:41;;;;;;;7.00;5.80;;;;;;;7.92;84.14;92965.13;523014;28;860;-69
2024/03/14 01:18:56;;;;;;;7.30;5.93;;;;;;;7.92;84.04;92967.88;523030;28;804;-69
2024/03/14 01:19:12;;;;;;;6.80;6.00;;;;;;;7.92;84.08;92970.63;522941;28;773;-69
2024/03/14 01:19:28;;;;;;;6.72;5.90;;;;;;;7.94;83.91;92966.06;523036;28;761;-69